Time;durP1;ratioP1;P1;durP2;ratioP2;P2;SDS_P1;SDS_P2;PMS_P1;PMS_P2;Temp;Humidity;BMP_temperature;BMP_pressure;BME280_temperature;BME280_humidity;BME280_pressure;Samples;Min_cycle;Max_cycle;Signal;HPM_P1;HPM_P2
2023/07/08 00:00:13;;;;;;;7.22;6.13;;;;;;;21.88;60.10;100827.19;4938574;29;20204;-80
2023/07/08 00:02:40;;;;;;;;;;;;;;;21.80;59.28;100814.97;4938043;29;20056;-80
2023/07/08 00:05:09;;;;;;;8.68;6.15;;;;;;;21.77;59.73;100820.75;4937033;29;19982;-81
2023/07/08 00:07:36;;;;;;;9.02;6.00;;;;;;;21.65;59.24;100801.28;4937143;29;20083;-80
2023/07/08 00:10:13;;;;;;;9.63;6.25;;;;;;;21.62;59.56;100796.41;4938016;29;20110;-80
2023/07/08 00:12:40;;;;;;;8.60;5.95;;;;;;;21.57;59.48;100801.56;4937505;29;20080;-81
2023/07/08 00:15:07;;;;;;;10.10;6.38;;;;;;;21.50;60.17;100802.47;4938321;29;20051;-82
2023/07/08 00:17:34;;;;;;;16.23;7.35;;;;;;;21.35;60.52;100796.69;4938287;29;20103;-82
2023/07/08 00:20:01;;;;;;;12.52;6.93;;;;;;;21.35;60.22;100798.56;4937687;29;20055;-81
2023/07/08 00:22:27;;;;;;;9.52;6.88;;;;;;;21.32;60.66;100796.31;4937248;29;20054;-82
2023/07/08 00:24:55;;;;;;;10.18;7.18;;;;;;;21.26;60.76;100794.59;4937703;29;20091;-82
2023/07/08 00:27:22;;;;;;;9.95;7.35;;;;;;;21.31;60.62;100800.84;4939887;29;20138;-82
2023/07/08 00:29:48;;;;;;;11.10;6.93;;;;;;;21.28;60.72;100800.47;4941653;29;20197;-82
2023/07/08 00:32:16;;;;;;;10.50;7.55;;;;;;;21.20;60.56;100806.91;4940856;29;20135;-82
2023/07/08 00:34:43;;;;;;;10.88;7.18;;;;;;;21.16;60.76;100803.03;4941899;29;20111;-82
2023/07/08 00:37:12;;;;;;;8.90;7.43;;;;;;;21.10;61.23;100803.94;4941539;29;20086;-82
2023/07/08 00:39:39;;;;;;;11.32;8.18;;;;;;;21.06;60.67;100802.75;4944894;29;20051;-79
2023/07/08 00:42:15;;;;;;;10.63;7.88;;;;;;;21.05;60.84;100790.47;4941582;29;20059;-80
2023/07/08 00:44:42;;;;;;;12.32;8.05;;;;;;;21.02;60.76;100805.03;4941073;29;20061;-80
2023/07/08 00:47:12;;;;;;;11.35;7.97;;;;;;;20.99;61.24;100809.97;4939399;29;20564;-81
2023/07/08 00:49:43;;;;;;;14.32;7.70;;;;;;;20.94;61.12;100804.50;4939485;29;20075;-81
2023/07/08 00:52:22;;;;;;;10.18;7.38;;;;;;;20.91;61.52;100810.25;4941260;29;20435;-82
2023/07/08 00:54:51;;;;;;;10.80;7.70;;;;;;;20.85;61.64;100804.78;4942973;29;20056;-82
2023/07/08 00:57:19;;;;;;;11.43;7.47;;;;;;;20.79;62.12;100810.19;4941805;29;20071;-82
2023/07/08 00:59:53;;;;;;;9.95;7.88;;;;;;;20.76;62.22;100803.44;4943429;29;20056;-81
2023/07/08 01:02:24;;;;;;;9.82;7.70;;;;;;;20.77;62.78;100810.41;4943267;29;20063;-82
2023/07/08 01:04:56;;;;;;;10.82;7.25;;;;;;;20.75;62.79;100799.16;4942337;29;20116;-81
2023/07/08 01:07:25;;;;;;;13.95;8.07;;;;;;;20.71;62.72;100811.25;4942434;29;20488;-86
2023/07/08 01:09:59;;;;;;;10.60;7.35;;;;;;;20.69;63.44;100804.53;4942494;29;20059;-84
2023/07/08 01:12:31;;;;;;;11.00;7.43;;;;;;;20.69;63.40;100800.03;4940763;29;20055;-82
2023/07/08 01:15:02;;;;;;;11.55;7.85;;;;;;;20.67;63.82;100802.09;4942406;29;20143;-84
2023/07/08 01:17:32;;;;;;;11.93;7.97;;;;;;;20.68;63.61;100803.72;4943602;29;20056;-83
2023/07/08 01:19:59;;;;;;;10.43;8.30;;;;;;;20.73;63.29;100801.22;4940491;29;20051;-83
2023/07/08 01:22:32;;;;;;;19.02;8.20;;;;;;;20.78;63.40;100800.56;4941948;29;20138;-85
2023/07/08 01:25:02;;;;;;;;;;;;;;;20.77;63.33;100797.09;4941270;29;20471;-84
2023/07/08 01:27:31;;;;;;;10.45;7.78;;;;;;;20.81;63.84;100805.44;4943192;29;20355;-86
2023/07/08 01:29:58;;;;;;;11.30;8.50;;;;;;;20.79;63.81;100796.88;4942394;29;20111;-85
2023/07/08 01:32:25;;;;;;;11.38;7.68;;;;;;;20.79;63.39;100802.19;4943510;29;20086;-83
2023/07/08 01:35:00;;;;;;;12.70;8.20;;;;;;;20.77;63.26;100789.13;4940923;29;20512;-81
2023/07/08 01:37:32;;;;;;;10.95;8.05;;;;;;;20.82;63.14;100791.09;4939978;29;20060;-81
2023/07/08 01:39:59;;;;;;;14.10;8.77;;;;;;;20.80;63.08;100793.16;4939938;29;20055;-81
2023/07/08 01:42:25;;;;;;;11.27;8.15;;;;;;;20.82;62.91;100797.22;4940503;29;20051;-80
2023/07/08 01:44:52;;;;;;;10.73;8.40;;;;;;;20.81;62.02;100789.47;4939601;29;20115;-81
2023/07/08 01:47:21;;;;;;;12.20;8.35;;;;;;;20.80;62.21;100783.34;4940017;29;20295;-80
2023/07/08 01:49:49;;;;;;;11.73;8.48;;;;;;;20.81;61.23;100782.31;4941854;29;20055;-80
2023/07/08 01:52:18;;;;;;;11.93;8.02;;;;;;;20.80;61.33;100779.88;4944390;29;20052;-79
2023/07/08 01:54:46;;;;;;;11.25;8.18;;;;;;;20.81;61.57;100778.81;4940985;29;20154;-80
2023/07/08 01:57:13;;;;;;;11.27;8.93;;;;;;;20.80;61.82;100780.69;4940367;29;20130;-80
2023/07/08 01:59:39;;;;;;;12.75;8.07;;;;;;;20.69;62.04;100785.94;4941472;29;20055;-80
2023/07/08 02:02:06;;;;;;;12.15;8.80;;;;;;;20.71;62.20;100779.34;4940105;29;20142;-79
2023/07/08 02:04:32;;;;;;;10.80;8.25;;;;;;;20.73;61.93;100765.84;4940964;29;20083;-78
2023/07/08 02:07:00;;;;;;;12.93;8.93;;;;;;;20.67;62.13;100772.03;4939802;29;20486;-80
2023/07/08 02:09:27;;;;;;;11.40;8.25;;;;;;;20.66;62.35;100770.41;4941106;29;20139;-79
2023/07/08 02:11:56;;;;;;;11.75;8.23;;;;;;;20.57;62.26;100761.88;4940866;29;20496;-80
2023/07/08 02:14:23;;;;;;;13.40;9.07;;;;;;;20.54;62.41;100765.78;4941273;29;20047;-80
2023/07/08 02:16:50;;;;;;;10.95;8.45;;;;;;;20.50;62.66;100761.13;4941193;29;20139;-80
2023/07/08 02:19:17;;;;;;;13.48;8.82;;;;;;;20.47;63.08;100764.22;4938826;29;20482;-80
2023/07/08 02:21:43;;;;;;;12.13;8.45;;;;;;;20.48;64.08;100765.84;4939595;29;20139;-80
2023/07/08 02:24:10;;;;;;;12.45;8.48;;;;;;;20.43;63.36;100761.19;4937976;29;20135;-80
2023/07/08 02:26:36;;;;;;;12.15;9.00;;;;;;;20.33;63.48;100762.66;4938713;29;20120;-80
2023/07/08 02:29:04;;;;;;;13.40;8.77;;;;;;;20.23;63.82;100754.38;4939131;29;20090;-80
2023/07/08 02:31:31;;;;;;;18.27;10.68;;;;;;;20.18;64.00;100763.00;4940145;29;20092;-81
2023/07/08 02:33:58;;;;;;;11.57;8.13;;;;;;;20.14;63.87;100761.81;4939038;29;20115;-80
2023/07/08 02:36:24;;;;;;;11.80;8.20;;;;;;;20.07;64.27;100756.53;4939287;29;20086;-80
2023/07/08 02:38:51;;;;;;;13.40;8.50;;;;;;;20.01;64.83;100764.53;4938761;29;20135;-81
2023/07/08 02:41:18;;;;;;;11.43;8.68;;;;;;;19.93;65.50;100762.13;4939963;29;20265;-80
2023/07/08 02:43:44;;;;;;;11.55;8.73;;;;;;;19.87;65.32;100756.66;4930453;29;20570;-80
2023/07/08 02:46:13;;;;;;;11.80;8.57;;;;;;;19.89;65.51;100754.59;4931562;29;20060;-80
2023/07/08 02:48:39;;;;;;;14.65;9.35;;;;;;;19.84;65.28;100757.09;4938491;29;20490;-81
2023/07/08 02:51:08;;;;;;;11.20;8.25;;;;;;;19.79;65.61;100761.44;4938405;29;20114;-80
2023/07/08 02:53:35;;;;;;;13.27;9.07;;;;;;;19.73;65.75;100757.78;4938757;29;20044;-81
2023/07/08 02:56:02;;;;;;;12.00;8.48;;;;;;;19.73;66.03;100765.75;4938843;29;20102;-79
2023/07/08 02:58:29;;;;;;;10.93;8.43;;;;;;;19.67;66.19;100760.47;4938172;29;20087;-79
2023/07/08 03:00:58;;;;;;;12.48;8.95;;;;;;;19.63;66.64;100764.56;4938577;29;20130;-79
2023/07/08 03:03:28;;;;;;;10.82;7.60;;;;;;;19.65;67.67;100781.09;4938645;29;20126;-79
2023/07/08 03:05:56;;;;;;;9.82;7.97;;;;;;;19.58;67.61;100775.00;4938317;29;20138;-81
2023/07/08 03:08:23;;;;;;;17.30;8.30;;;;;;;19.52;67.82;100772.16;4938375;29;20138;-79
2023/07/08 03:10:56;;;;;;;10.68;8.15;;;;;;;19.50;68.27;100776.03;4938457;29;20484;-79
2023/07/08 03:13:23;;;;;;;11.32;8.02;;;;;;;19.44;68.74;100779.50;4938278;29;20087;-80
2023/07/08 03:15:49;;;;;;;10.90;7.70;;;;;;;19.40;69.22;100783.59;4938417;29;20135;-78
2023/07/08 03:18:16;;;;;;;10.25;8.13;;;;;;;19.41;69.15;100771.97;4936886;29;20134;-78
2023/07/08 03:20:44;;;;;;;13.73;8.65;;;;;;;19.39;68.83;100777.50;4936926;29;20111;-79
2023/07/08 03:23:13;;;;;;;14.43;8.77;;;;;;;19.35;68.39;100760.38;4977976;23;20055;-81
2023/07/08 03:25:41;;;;;;;11.52;8.30;;;;;;;19.36;68.79;100758.56;4952112;28;20077;-80
2023/07/08 03:28:15;;;;;;;11.48;8.02;;;;;;;19.39;68.59;100771.38;4956023;28;20051;-80
2023/07/08 03:30:45;;;;;;;11.48;8.45;;;;;;;19.42;68.14;100769.09;4955647;28;20058;-81
2023/07/08 03:33:13;;;;;;;9.43;7.88;;;;;;;19.48;67.79;100768.28;4951134;29;20047;-80
2023/07/08 03:35:40;;;;;;;10.52;7.95;;;;;;;19.51;67.50;100762.56;4965270;29;20051;-80
2023/07/08 03:38:13;;;;;;;12.15;7.97;;;;;;;19.61;66.95;100778.06;4973566;28;20114;-82
2023/07/08 03:40:44;;;;;;;11.55;8.13;;;;;;;19.54;66.87;100762.16;4964187;29;20493;-82
2023/07/08 03:43:10;;;;;;;11.77;8.07;;;;;;;19.56;66.82;100764.59;4955846;29;20150;-83
2023/07/08 03:45:40;;;;;;;11.45;7.90;;;;;;;19.62;67.12;100779.69;4959498;29;20063;-82
2023/07/08 03:48:13;;;;;;;11.48;8.15;;;;;;;19.79;67.76;100788.78;4959949;28;20470;-82
2023/07/08 03:50:41;;;;;;;;;;;;;;;19.83;67.62;100795.31;4962423;28;20055;-82
2023/07/08 03:53:13;;;;;;;12.02;8.13;;;;;;;19.92;67.29;100795.84;4966539;29;19929;-82
2023/07/08 03:55:40;;;;;;;11.80;7.80;;;;;;;19.72;67.25;100763.31;4969230;29;20048;-82
2023/07/08 03:58:08;;;;;;;13.63;7.80;;;;;;;19.90;66.66;100792.59;4968617;28;20047;-80
2023/07/08 04:00:41;;;;;;;10.52;7.97;;;;;;;19.85;66.56;100789.75;4972549;28;20043;-79
2023/07/08 04:03:18;;;;;;;10.13;7.60;;;;;;;19.73;66.92;100796.78;4974200;28;20061;-82
2023/07/08 04:05:57;;;;;;;10.75;8.10;;;;;;;19.65;67.52;100789.06;4971814;29;20093;-83
2023/07/08 04:11:14;;;;;;;12.00;7.70;;;;;;;19.72;67.15;100771.25;4963426;28;20055;-83
2023/07/08 04:13:43;;;;;;;10.43;7.85;;;;;;;20.05;66.40;100789.66;4962967;28;20057;-84
2023/07/08 04:16:18;;;;;;;11.30;7.93;;;;;;;20.15;65.53;100787.34;4963746;28;20051;-81
2023/07/08 04:18:45;;;;;;;11.57;7.97;;;;;;;20.02;65.46;100793.53;4963824;28;20106;-82
2023/07/08 04:21:18;;;;;;;11.27;7.03;;;;;;;19.99;65.97;100791.31;4960514;28;20047;-83
2023/07/08 04:23:46;;;;;;;11.52;7.72;;;;;;;19.82;65.93;100769.78;4963017;28;20048;-83
2023/07/08 04:26:15;;;;;;;12.73;7.35;;;;;;;20.27;66.26;100804.22;4963381;28;20048;-82
2023/07/08 04:28:44;;;;;;;14.63;7.70;;;;;;;20.76;64.49;100784.03;4961282;29;20055;-79
2023/07/08 04:31:19;;;;;;;10.73;7.20;;;;;;;20.43;63.71;100768.34;4952404;28;20421;-81
2023/07/08 04:33:48;;;;;;;10.88;7.55;;;;;;;20.14;64.70;100778.56;4959849;28;20051;-81
2023/07/08 04:36:21;;;;;;;12.13;7.22;;;;;;;20.01;65.72;100807.03;4962989;28;20142;-81
2023/07/08 04:38:52;;;;;;;8.63;6.93;;;;;;;19.81;66.19;100794.72;4963290;28;20055;-80
2023/07/08 04:41:22;;;;;;;11.52;6.97;;;;;;;19.79;66.19;100802.06;4964049;28;20059;-81
2023/07/08 04:44:02;;;;;;;9.57;6.88;;;;;;;19.75;66.41;100789.44;4964561;28;20103;-83
2023/07/08 04:46:43;;;;;;;10.70;6.78;;;;;;;19.60;66.55;100783.56;4963792;28;20078;-80
2023/07/08 04:49:10;;;;;;;13.70;7.20;;;;;;;19.73;66.62;100802.09;4954857;29;20047;-80
2023/07/08 04:51:47;;;;;;;8.77;6.93;;;;;;;19.64;66.54;100782.13;4962531;28;20087;-81
2023/07/08 04:54:17;;;;;;;9.27;6.60;;;;;;;19.85;66.37;100816.31;4953796;29;20054;-81
2023/07/08 04:56:48;;;;;;;10.25;6.90;;;;;;;19.97;65.92;100811.16;4961155;29;20083;-82
2023/07/08 04:59:18;;;;;;;9.90;7.00;;;;;;;20.19;65.45;100812.47;4954280;29;20050;-81
2023/07/08 05:01:46;;;;;;;8.30;6.40;;;;;;;20.53;64.34;100796.06;4962943;28;20078;-82
2023/07/08 05:04:15;;;;;;;9.07;7.13;;;;;;;20.68;63.77;100801.06;4954654;29;20515;-82
2023/07/08 05:06:44;;;;;;;8.13;6.75;;;;;;;20.88;63.22;100804.34;4962504;29;20094;-82
2023/07/08 05:09:12;;;;;;;10.98;7.10;;;;;;;20.94;62.96;100810.63;4962490;28;20130;-80
2023/07/08 05:11:40;;;;;;;12.93;6.88;;;;;;;20.69;63.56;100813.31;4962009;28;20138;-78
2023/07/08 05:14:06;;;;;;;11.65;6.30;;;;;;;20.74;63.16;100808.16;4962015;28;20107;-79
2023/07/08 05:16:34;;;;;;;8.40;6.32;;;;;;;21.16;63.27;100811.84;4964518;28;20483;-80
2023/07/08 05:19:01;;;;;;;8.38;6.53;;;;;;;21.40;62.24;100812.81;4962484;28;20111;-80
2023/07/08 05:21:33;;;;;;;12.05;7.47;;;;;;;21.86;61.76;100814.91;4962147;28;20062;-80
2023/07/08 05:24:00;;;;;;;8.02;6.18;;;;;;;22.21;60.89;100821.44;4962368;29;20087;-78
2023/07/08 05:26:26;;;;;;;8.02;6.32;;;;;;;22.59;60.12;100821.84;4963127;28;20133;-80
2023/07/08 05:28:54;;;;;;;9.13;6.20;;;;;;;23.20;58.54;100820.56;4961701;28;20047;-81
2023/07/08 05:31:21;;;;;;;9.05;6.15;;;;;;;23.88;56.71;100802.97;4962385;28;20119;-82
2023/07/08 05:33:48;;;;;;;11.48;6.13;;;;;;;23.83;56.32;100796.50;4962929;28;20498;-82
2023/07/08 05:36:15;;;;;;;11.07;6.55;;;;;;;24.33;55.53;100803.81;4962201;28;20054;-81
2023/07/08 05:38:43;;;;;;;8.25;6.70;;;;;;;24.27;54.91;100802.09;4962775;28;20130;-82
2023/07/08 05:41:12;;;;;;;10.10;6.78;;;;;;;24.54;54.65;100814.84;4946139;29;20082;-82
2023/07/08 05:43:38;;;;;;;7.82;6.45;;;;;;;24.64;54.02;100805.09;4962825;29;20057;-82
2023/07/08 05:46:07;;;;;;;9.30;6.43;;;;;;;25.63;53.26;100818.47;4962156;29;20114;-82
2023/07/08 05:48:34;;;;;;;8.23;6.20;;;;;;;25.58;53.04;100810.38;4962829;28;20043;-82
2023/07/08 05:51:04;;;;;;;10.07;6.55;;;;;;;25.19;52.72;100806.16;4962409;29;20086;-83
2023/07/08 05:53:39;;;;;;;8.35;6.20;;;;;;;24.50;54.36;100814.50;4962246;28;20076;-82
2023/07/08 05:56:06;;;;;;;9.45;6.50;;;;;;;24.04;55.54;100815.56;4962222;29;20592;-82
2023/07/08 05:58:34;;;;;;;9.30;6.55;;;;;;;23.44;56.19;100800.78;4962651;28;20113;-82
2023/07/08 06:01:03;;;;;;;8.60;6.63;;;;;;;23.46;56.85;100825.41;4962872;29;20047;-83
2023/07/08 06:03:33;;;;;;;9.10;6.40;;;;;;;23.37;56.51;100799.28;4962611;29;20055;-82
2023/07/08 06:06:01;;;;;;;8.20;6.38;;;;;;;23.59;57.04;100820.88;4962778;28;20064;-83
2023/07/08 06:08:31;;;;;;;9.30;6.10;;;;;;;23.65;55.87;100814.56;4961887;28;20118;-83
2023/07/08 06:11:03;;;;;;;12.20;6.70;;;;;;;24.84;55.61;100841.25;4960644;28;20051;-83
2023/07/08 06:13:31;;;;;;;7.35;6.40;;;;;;;26.65;52.30;100814.09;4961861;28;20396;-82
2023/07/08 06:16:00;;;;;;;13.68;6.18;;;;;;;27.18;51.15;100818.47;4962107;28;20078;-83
2023/07/08 06:18:31;;;;;;;8.70;6.85;;;;;;;26.16;51.24;100826.81;4961937;28;20079;-82
2023/07/08 06:20:59;;;;;;;8.57;6.63;;;;;;;25.92;51.57;100824.47;4962208;28;20051;-83
2023/07/08 06:23:27;;;;;;;10.82;6.50;;;;;;;26.89;50.54;100815.34;4961003;28;20058;-83
2023/07/08 06:25:53;;;;;;;7.85;5.88;;;;;;;27.48;49.20;100800.84;4951499;28;20431;-83
2023/07/08 06:28:20;;;;;;;8.15;6.15;;;;;;;27.95;48.00;100811.47;4959275;28;20078;-83
2023/07/08 06:30:50;;;;;;;8.90;6.32;;;;;;;28.01;47.82;100796.94;4960427;29;20055;-82
2023/07/08 06:33:17;;;;;;;9.20;6.10;;;;;;;29.27;45.99;100824.84;4959962;29;20059;-80
2023/07/08 06:35:47;;;;;;;8.77;6.95;;;;;;;30.40;43.47;100817.69;4961161;28;20051;-81
2023/07/08 06:38:30;;;;;;;12.05;6.95;;;;;;;29.04;43.71;100821.69;4959996;28;20082;-82
2023/07/08 06:40:57;;;;;;;12.43;7.10;;;;;;;28.25;45.82;100806.16;4960130;28;20094;-83
2023/07/08 06:43:24;;;;;;;14.23;6.90;;;;;;;27.99;45.77;100810.66;4959545;28;20463;-81
2023/07/08 06:45:50;;;;;;;7.57;6.38;;;;;;;28.02;45.37;100785.94;4961838;28;20107;-82
2023/07/08 06:48:17;;;;;;;8.85;6.80;;;;;;;29.08;44.54;100797.69;4965007;28;20134;-83
2023/07/08 06:50:49;;;;;;;8.73;6.63;;;;;;;29.09;44.14;100788.53;4968299;28;20109;-82
2023/07/08 06:53:16;;;;;;;;;;;;;;;27.92;45.71;100785.91;4972936;29;20075;-83
2023/07/08 06:55:45;;;;;;;7.47;6.65;;;;;;;26.54;47.36;100764.09;4969771;29;19922;-81
2023/07/08 06:58:17;;;;;;;9.13;7.35;;;;;;;25.55;49.54;100781.41;4959352;29;20054;-82
2023/07/08 07:00:44;;;;;;;8.98;6.80;;;;;;;25.32;49.96;100785.16;4965540;29;20051;-81
2023/07/08 07:03:11;;;;;;;8.60;6.93;;;;;;;25.81;49.52;100779.03;4964081;28;20523;-81
2023/07/08 07:05:37;;;;;;;9.95;7.63;;;;;;;26.13;49.52;100799.44;4962938;28;20110;-81
2023/07/08 07:08:06;;;;;;;10.65;7.03;;;;;;;26.82;48.77;100781.72;4963981;29;20050;-81
2023/07/08 07:10:33;;;;;;;10.25;7.15;;;;;;;27.60;47.17;100782.63;4963432;28;20055;-81
2023/07/08 07:13:01;;;;;;;9.27;6.72;;;;;;;27.73;47.00;100771.38;4964197;28;20111;-80
2023/07/08 07:15:30;;;;;;;10.02;7.25;;;;;;;28.09;46.42;100781.09;4963176;28;20062;-82
2023/07/08 07:17:56;;;;;;;11.52;7.15;;;;;;;27.71;46.05;100768.97;4962410;28;20081;-80
2023/07/08 07:20:23;;;;;;;11.00;6.97;;;;;;;27.89;46.37;100780.25;4963376;29;20107;-81
2023/07/08 07:22:51;;;;;;;9.20;6.70;;;;;;;27.94;46.26;100770.31;4964457;29;20452;-82
2023/07/08 07:25:18;;;;;;;10.57;7.47;;;;;;;28.03;46.30;100782.16;4965622;28;20150;-82
2023/07/08 07:27:44;;;;;;;9.77;7.20;;;;;;;28.20;45.77;100784.59;4965014;28;20090;-82
2023/07/08 07:30:14;;;;;;;10.70;7.43;;;;;;;27.88;46.11;100774.09;4961460;29;20082;-80
2023/07/08 07:32:42;;;;;;;8.82;7.32;;;;;;;28.09;45.86;100761.44;4964272;28;20047;-83
2023/07/08 07:35:12;;;;;;;11.40;7.97;;;;;;;27.81;45.84;100768.16;4963220;28;20063;-81
2023/07/08 07:37:40;;;;;;;9.57;7.43;;;;;;;27.99;45.63;100769.50;4964588;28;20153;-81
2023/07/08 07:40:12;;;;;;;11.93;7.32;;;;;;;28.16;45.53;100774.63;4964195;28;20051;-82
2023/07/08 07:42:38;;;;;;;;;;;;;;;28.19;45.67;100768.72;4962154;28;20051;-81
2023/07/08 07:45:06;;;;;;;10.57;7.50;;;;;;;28.49;44.67;100767.91;4963781;29;19931;-81
2023/07/08 07:47:34;;;;;;;10.70;7.70;;;;;;;29.21;44.55;100793.59;4959173;29;20110;-81
2023/07/08 07:50:02;;;;;;;10.70;7.40;;;;;;;29.29;44.32;100799.22;4964889;28;20051;-80
2023/07/08 07:52:28;;;;;;;10.27;7.88;;;;;;;29.53;44.42;100803.97;4965814;28;20046;-81
2023/07/08 07:54:55;;;;;;;9.73;7.15;;;;;;;29.12;43.79;100774.50;4966633;28;20511;-81
2023/07/08 07:57:22;;;;;;;10.52;7.80;;;;;;;29.26;44.05;100797.09;4964009;28;20138;-82
2023/07/08 07:59:50;;;;;;;10.30;7.07;;;;;;;29.70;44.19;100810.63;4964997;28;20110;-82
2023/07/08 08:02:16;;;;;;;8.65;7.45;;;;;;;28.96;44.43;100810.66;4964507;28;20110;-81
2023/07/08 08:04:46;;;;;;;10.50;7.70;;;;;;;29.87;44.58;100814.84;4966775;29;20109;-82
2023/07/08 08:07:12;;;;;;;9.73;7.45;;;;;;;30.29;43.96;100806.97;4957986;29;20508;-82
2023/07/08 08:09:42;;;;;;;10.18;7.25;;;;;;;30.12;42.59;100790.41;4965107;29;20065;-82
2023/07/08 08:12:15;;;;;;;9.95;7.78;;;;;;;30.15;42.55;100797.94;4965345;28;20384;-82
2023/07/08 08:14:42;;;;;;;8.55;7.35;;;;;;;30.46;41.99;100806.56;4962970;29;20070;-81
2023/07/08 08:17:12;;;;;;;12.80;7.80;;;;;;;29.87;42.95;100807.53;4964210;28;20051;-82
2023/07/08 08:19:42;;;;;;;9.50;7.43;;;;;;;30.31;42.49;100795.91;4961294;28;20047;-80
2023/07/08 08:22:10;;;;;;;10.88;7.45;;;;;;;30.93;42.37;100815.84;4960940;28;20122;-80
2023/07/08 08:24:37;;;;;;;10.50;7.55;;;;;;;30.22;42.56;100793.03;4962234;29;20558;-81
2023/07/08 08:27:04;;;;;;;10.45;8.07;;;;;;;29.81;42.81;100784.38;4960680;28;20549;-79
2023/07/08 08:29:31;;;;;;;8.98;7.43;;;;;;;30.63;41.92;100792.69;4960964;29;20174;-80
2023/07/08 08:31:57;;;;;;;11.73;8.27;;;;;;;29.74;43.53;100783.91;4962096;29;20542;-81
2023/07/08 08:34:24;;;;;;;11.23;8.07;;;;;;;30.14;42.19;100792.81;4962830;28;20122;-80
2023/07/08 08:36:51;;;;;;;11.80;7.85;;;;;;;30.72;42.43;100800.97;4962504;28;20086;-81
2023/07/08 08:39:21;;;;;;;10.82;7.47;;;;;;;29.85;42.65;100788.13;4962170;29;20736;-80
2023/07/08 08:41:52;;;;;;;9.93;7.80;;;;;;;30.46;42.35;100806.56;4963106;28;20055;-81
2023/07/08 08:44:29;;;;;;;10.20;7.55;;;;;;;30.45;42.38;100794.16;4966668;29;20065;-82
2023/07/08 08:47:02;;;;;;;10.23;7.50;;;;;;;30.99;42.36;100810.09;4965578;28;20078;-80
2023/07/08 08:49:35;;;;;;;12.38;7.45;;;;;;;30.33;42.61;100793.72;4963072;29;20142;-81
2023/07/08 08:52:01;;;;;;;10.23;7.93;;;;;;;30.76;42.18;100791.97;4962441;28;20058;-81
2023/07/08 08:54:31;;;;;;;10.18;7.70;;;;;;;30.31;42.37;100795.91;4963665;28;20110;-81
2023/07/08 08:57:06;;;;;;;9.98;7.45;;;;;;;30.79;41.87;100812.22;4962147;28;20159;-82
2023/07/08 08:59:43;;;;;;;11.50;7.90;;;;;;;31.08;42.13;100817.59;4961724;29;20121;-80
2023/07/08 09:02:26;;;;;;;11.48;7.25;;;;;;;32.11;41.94;100830.28;4961681;28;20085;-82
2023/07/08 09:04:53;;;;;;;11.82;7.50;;;;;;;32.24;41.24;100826.03;4962394;28;20448;-82
2023/07/08 09:07:21;;;;;;;9.35;7.65;;;;;;;31.45;41.01;100816.88;4962163;28;20115;-81
2023/07/08 09:09:59;;;;;;;10.00;7.53;;;;;;;31.60;40.80;100808.56;4961704;28;20051;-80
2023/07/08 09:12:28;;;;;;;10.32;7.28;;;;;;;31.84;41.18;100809.31;4961859;29;20138;-81
2023/07/08 09:14:54;;;;;;;10.38;7.63;;;;;;;32.21;41.40;100813.06;4962246;29;20110;-82
2023/07/08 09:17:24;;;;;;;9.50;6.72;;;;;;;31.79;41.40;100806.69;4961267;28;20119;-80
2023/07/08 09:19:58;;;;;;;10.10;7.28;;;;;;;31.74;40.99;100811.34;4960944;28;20546;-80
2023/07/08 09:22:32;;;;;;;10.15;7.10;;;;;;;31.82;40.77;100810.69;4977273;23;20142;-86
2023/07/08 09:25:05;;;;;;;10.15;6.72;;;;;;;31.57;40.46;100790.22;4964665;29;20420;-86
2023/07/08 09:27:34;;;;;;;11.27;7.03;;;;;;;31.46;41.21;100770.63;4973181;28;20522;-87
2023/07/08 09:30:01;;;;;;;9.38;6.57;;;;;;;32.31;40.78;100796.69;4973966;28;20035;-84
2023/07/08 09:32:29;;;;;;;12.77;7.22;;;;;;;31.24;40.70;100781.19;4978787;28;20061;-84
2023/07/08 09:35:05;;;;;;;10.38;7.20;;;;;;;31.93;41.21;100785.09;4978451;28;20058;-87
2023/07/08 09:37:35;;;;;;;9.57;6.70;;;;;;;31.53;41.05;100791.88;4978020;28;20054;-88
2023/07/08 09:40:16;;;;;;;11.82;6.50;;;;;;;31.98;40.47;100772.28;4978307;28;20074;-89
2023/07/08 09:42:45;;;;;;;9.80;6.63;;;;;;;32.17;40.50;100787.66;4978788;28;20055;-89
2023/07/08 09:45:15;;;;;;;9.98;7.22;;;;;;;31.95;40.34;100778.28;4970262;28;20043;-88
2023/07/08 09:47:45;;;;;;;9.57;6.35;;;;;;;32.28;40.56;100776.41;4970060;28;20043;-88
2023/07/08 09:50:20;;;;;;;9.80;6.75;;;;;;;31.64;40.32;100758.19;4962351;29;20055;-87
2023/07/08 09:52:49;;;;;;;9.68;6.35;;;;;;;31.81;41.25;100769.31;4970784;28;20055;-88
2023/07/08 09:55:18;;;;;;;12.27;6.95;;;;;;;32.03;40.90;100776.81;4964750;29;20415;-88
2023/07/08 09:57:50;;;;;;;9.68;6.40;;;;;;;32.82;40.45;100795.78;4961212;29;20484;-88
2023/07/08 10:00:20;;;;;;;;;;;;;;;32.44;40.40;100776.94;4952545;28;20055;-88
2023/07/08 10:02:53;;;;;;;10.40;6.55;;;;;;;32.85;41.16;100789.75;4954296;29;19922;-89
2023/07/08 10:05:23;;;;;;;11.95;7.38;;;;;;;31.94;40.83;100768.56;4961673;29;20047;-89
2023/07/08 10:08:14;;;;;;;9.65;7.45;;;;;;;31.84;40.89;100760.59;4947507;28;20071;-88
2023/07/08 10:10:43;;;;;;;9.90;6.47;;;;;;;31.87;40.81;100748.38;4964081;29;20112;-88
2023/07/08 10:13:21;;;;;;;9.45;6.80;;;;;;;32.23;41.18;100756.75;4961999;28;20071;-89
2023/07/08 10:15:53;;;;;;;8.50;6.40;;;;;;;32.32;40.56;100757.66;4961499;29;20146;-88
2023/07/08 10:18:25;;;;;;;;;;;;;;;32.24;40.85;100769.97;4975206;28;20320;-88
2023/07/08 10:20:57;;;;;;;;;;;;;;;32.16;40.82;100761.69;4981484;28;19964;-88
2023/07/08 10:23:30;;;;;;;;;;;;;;;32.08;40.55;100763.22;4960821;28;19955;-89
2023/07/08 10:26:05;;;;;;;8.52;6.38;;;;;;;31.80;40.83;100743.34;4960806;28;19945;-89
2023/07/08 10:28:38;;;;;;;13.52;6.93;;;;;;;32.00;40.27;100753.84;4960625;28;20130;-86
2023/07/08 10:31:17;;;;;;;9.82;6.63;;;;;;;32.28;40.75;100754.75;4960391;28;20059;-88
2023/07/08 10:34:13;;;;;;;10.07;6.68;;;;;;;32.30;40.32;100757.16;4960856;29;20424;-87
2023/07/08 10:36:50;;;;;;;11.05;6.70;;;;;;;32.55;39.68;100735.03;4949169;29;20055;-87
2023/07/08 10:39:40;;;;;;;8.68;6.10;;;;;;;32.77;40.33;100739.78;4954281;29;20054;-88
2023/07/08 10:42:23;;;;;;;10.13;6.55;;;;;;;33.35;39.13;100743.75;4961035;28;20095;-87
2023/07/08 10:44:58;;;;;;;11.30;7.25;;;;;;;34.14;39.54;100744.00;4969006;28;20053;-88
2023/07/08 10:47:38;;;;;;;9.90;6.43;;;;;;;33.05;39.70;100735.16;4961294;29;20499;-88
2023/07/08 10:50:19;;;;;;;10.25;6.78;;;;;;;32.84;40.19;100747.50;4960791;29;20047;-88
2023/07/08 10:52:58;;;;;;;12.80;6.35;;;;;;;32.76;39.94;100737.38;4960814;28;20495;-87
2023/07/08 10:55:41;;;;;;;10.55;7.13;;;;;;;33.17;39.21;100743.53;4961199;28;20508;-87
2023/07/08 10:58:36;;;;;;;9.25;6.32;;;;;;;33.20;39.00;100737.50;4965034;28;20062;-88
2023/07/08 11:01:11;;;;;;;9.88;6.80;;;;;;;33.94;38.42;100746.16;4965018;28;20059;-88
2023/07/08 11:03:54;;;;;;;10.07;6.65;;;;;;;33.15;39.49;100734.91;4966318;28;20583;-88
2023/07/08 11:06:27;;;;;;;12.52;6.93;;;;;;;33.50;39.23;100746.91;4967037;28;20043;-87
2023/07/08 11:09:00;;;;;;;10.07;7.07;;;;;;;33.79;39.06;100738.38;4972827;28;20039;-88
2023/07/08 11:11:35;;;;;;;11.40;6.90;;;;;;;33.21;39.35;100730.19;4963211;28;20051;-88
2023/07/08 11:14:12;;;;;;;13.93;6.45;;;;;;;33.11;39.00;100742.03;4974009;28;20045;-87
2023/07/08 11:16:46;;;;;;;12.07;6.82;;;;;;;33.14;38.87;100722.44;4969891;28;20035;-88
2023/07/08 11:19:19;;;;;;;13.93;7.10;;;;;;;33.49;39.16;100733.66;4951162;29;20042;-88
2023/07/08 11:21:48;;;;;;;8.38;6.60;;;;;;;34.22;38.49;100740.56;4969860;28;20071;-89
2023/07/08 11:24:23;;;;;;;11.02;6.70;;;;;;;33.58;37.51;100734.50;4977529;29;20074;-89
2023/07/08 11:26:55;;;;;;;10.82;6.93;;;;;;;34.50;38.35;100754.78;4977553;28;20088;-89
2023/07/08 11:29:31;;;;;;;12.20;6.75;;;;;;;34.11;37.57;100721.00;4976972;28;20049;-88
2023/07/08 11:31:59;;;;;;;9.27;7.07;;;;;;;34.43;38.27;100730.78;4977168;28;20047;-89
2023/07/08 11:34:28;;;;;;;9.18;6.85;;;;;;;34.82;37.48;100740.06;4976774;28;20051;-89
2023/07/08 11:36:58;;;;;;;13.27;6.57;;;;;;;34.48;37.67;100727.13;4983782;28;20078;-88